Terminal Aerodrome Forecast
Issued by NWS

Home | Current Version | Previous Version | Text Only | Print | Product List | Glossary On
Versions: 1 2 3 4 5 6 7 8 9 10 11 12 13 14 15 16 17 18 19 20
000
FTAK31 PAJN 081513 AAB
TAFAGY
TAF AMD
PAGY 081513Z 0815/0912 03012G20KT P6SM BKN040 OVC060
     FM081700 03018G28KT P6SM SCT020 OVC035
     FM082200 04025G35KT P6SM SCT030 SCT060
     FM090200 04030G40KT P6SM FEW200
      AMD LTD TO CLD VIS AND WIND=

USA.gov is the U.S. government's official web portal to all federal, state and local government web resources and services.